Time;durP1;ratioP1;P1;durP2;ratioP2;P2;SDS_P1;SDS_P2;PMS_P1;PMS_P2;Temp;Humidity;BMP_temperature;BMP_pressure;BME280_temperature;BME280_humidity;BME280_pressure;Samples;Min_cycle;Max_cycle;Signal;HPM_P1;HPM_P2
2023/05/09 00:01:52;;;;;;;36.67;21.05;;;16.40;99.90;;;;;;4991610;28;20495;-69
2023/05/09 00:04:18;;;;;;;32.38;19.23;;;16.50;99.90;;;;;;4975788;28;20034;-68
2023/05/09 00:06:44;;;;;;;30.67;19.38;;;16.50;99.90;;;;;;4991908;28;20053;-69
2023/05/09 00:09:10;;;;;;;35.60;20.33;;;16.20;99.90;;;;;;4991699;28;20042;-69
2023/05/09 00:11:35;;;;;;;31.50;19.23;;;16.10;99.90;;;;;;4991544;28;20042;-69
2023/05/09 00:14:02;;;;;;;35.50;20.33;;;16.40;99.90;;;;;;4991726;28;20053;-69
2023/05/09 00:16:27;;;;;;;37.38;20.48;;;16.30;99.90;;;;;;4991570;28;20053;-68
2023/05/09 00:18:54;;;;;;;34.85;19.80;;;16.20;99.90;;;;;;4991709;28;20440;-69
2023/05/09 00:21:20;;;;;;;36.75;20.38;;;16.10;99.90;;;;;;4991327;28;20042;-69
2023/05/09 00:23:46;;;;;;;32.10;20.25;;;16.00;99.90;;;;;;4991434;28;20085;-69
2023/05/09 00:26:12;;;;;;;34.38;20.20;;;16.10;99.90;;;;;;4991642;28;20061;-68
2023/05/09 00:28:37;;;;;;;33.22;20.27;;;16.30;99.90;;;;;;4991435;28;20488;-68
2023/05/09 00:31:04;;;;;;;34.03;21.05;;;16.70;99.90;;;;;;4991917;28;20038;-69
2023/05/09 00:33:29;;;;;;;34.10;20.30;;;16.30;99.90;;;;;;4990353;28;20046;-69
2023/05/09 00:35:55;;;;;;;32.50;20.25;;;16.30;99.90;;;;;;4991071;28;20041;-69
2023/05/09 00:38:22;;;;;;;33.55;19.88;;;16.20;99.90;;;;;;4991250;28;20042;-69
2023/05/09 00:40:48;;;;;;;32.90;19.17;;;16.70;99.90;;;;;;4991205;28;20049;-68
2023/05/09 00:43:13;;;;;;;32.47;19.13;;;16.30;99.90;;;;;;4991476;28;20046;-69
2023/05/09 00:45:39;;;;;;;35.00;20.02;;;16.60;99.90;;;;;;4975205;28;20034;-69
2023/05/09 00:48:05;;;;;;;42.95;24.70;;;16.30;99.90;;;;;;4991371;28;20407;-69
2023/05/09 00:50:31;;;;;;;41.17;22.85;;;16.20;99.90;;;;;;4991145;28;20499;-69
2023/05/09 00:52:58;;;;;;;36.95;21.05;;;16.20;99.90;;;;;;4991044;28;20073;-68
2023/05/09 00:55:25;;;;;;;44.53;23.05;;;16.40;99.90;;;;;;4974830;28;20042;-69
2023/05/09 00:57:50;;;;;;;39.40;21.60;;;16.10;99.90;;;;;;4991310;28;20045;-69
2023/05/09 01:00:16;;;;;;;43.30;24.25;;;16.80;99.90;;;;;;4990892;28;20492;-68
2023/05/09 01:02:46;;;;;;;44.20;23.35;;;16.00;99.90;;;;;;4991026;28;20046;-68
2023/05/09 01:05:12;;;;;;;47.45;23.77;;;15.90;99.90;;;;;;5007767;28;20042;-69
2023/05/09 01:07:59;;;;;;;45.15;24.25;;;16.70;99.90;;;;;;4993237;28;20034;-69
2023/05/09 01:10:38;;;;;;;43.95;23.80;;;15.90;99.90;;;;;;4992906;28;20102;-69
2023/05/09 01:13:26;;;;;;;39.78;23.65;;;16.00;99.90;;;;;;4975749;28;20046;-69
2023/05/09 01:16:07;;;;;;;47.67;25.80;;;16.00;99.90;;;;;;5007294;28;20073;-69
2023/05/09 01:18:40;;;;;;;59.33;28.33;;;16.60;99.90;;;;;;5007372;28;20447;-69
2023/05/09 01:21:13;;;;;;;48.35;28.38;;;16.10;99.90;;;;;;4990712;28;20115;-68
2023/05/09 01:23:47;;;;;;;54.55;27.33;;;16.40;99.90;;;;;;4990989;28;20088;-69
2023/05/09 01:26:45;;;;;;;50.10;26.02;;;15.90;99.90;;;;;;4974644;28;20054;-69
2023/05/09 01:29:29;;;;;;;55.72;27.98;;;16.30;99.90;;;;;;4938576;28;20110;-68
2023/05/09 01:31:56;;;;;;;47.75;25.73;;;16.00;99.90;;;;;;4990386;28;20042;-69
2023/05/09 01:34:25;;;;;;;51.42;26.83;;;16.70;99.90;;;;;;4992169;28;20060;-68
2023/05/09 01:36:54;;;;;;;49.58;26.98;;;16.30;99.90;;;;;;4991981;28;20046;-69
2023/05/09 01:39:23;;;;;;;53.45;27.95;;;15.90;99.90;;;;;;4991859;28;20476;-68
2023/05/09 01:41:51;;;;;;;53.83;28.02;;;15.90;99.90;;;;;;5006682;28;20042;-69
2023/05/09 01:44:19;;;;;;;48.30;26.13;;;15.90;99.90;;;;;;5009557;28;20042;-68
2023/05/09 01:46:45;;;;;;;56.40;27.65;;;16.20;99.90;;;;;;4994517;28;20042;-69
2023/05/09 01:49:12;;;;;;;57.67;29.17;;;16.00;99.90;;;;;;5010830;28;20042;-68
2023/05/09 01:51:38;;;;;;;49.95;26.73;;;15.90;99.90;;;;;;4978208;28;20064;-69
2023/05/09 01:54:05;;;;;;;54.70;27.58;;;16.10;99.90;;;;;;4994456;28;20043;-69
2023/05/09 01:56:31;;;;;;;55.78;28.38;;;15.90;99.90;;;;;;4994203;28;20526;-69
2023/05/09 01:58:57;;;;;;;51.03;28.63;;;15.90;99.90;;;;;;4994171;28;20035;-69
2023/05/09 02:01:25;;;;;;;55.42;29.42;;;15.80;99.90;;;;;;4994086;28;20039;-69
2023/05/09 02:03:52;;;;;;;63.53;31.20;;;16.00;99.90;;;;;;4994261;28;20034;-69
2023/05/09 02:06:23;;;;;;;63.67;29.48;;;15.70;99.90;;;;;;5010383;28;20042;-69
2023/05/09 02:08:49;;;;;;;54.20;29.02;;;16.80;99.90;;;;;;4993949;28;20129;-69
2023/05/09 02:11:15;;;;;;;52.85;29.63;;;16.10;99.90;;;;;;5010110;28;20571;-69
2023/05/09 02:13:41;;;;;;;49.25;25.83;;;15.90;99.90;;;;;;4994292;28;20129;-69
2023/05/09 02:16:08;;;;;;;53.25;28.42;;;16.70;99.90;;;;;;4995233;28;20820;-68
2023/05/09 02:18:34;;;;;;;54.85;27.73;;;15.80;99.90;;;;;;4993866;28;20092;-69
2023/05/09 02:21:01;;;;;;;56.83;28.25;;;15.80;99.90;;;;;;4993589;28;20500;-68
2023/05/09 02:23:26;;;;;;;67.30;33.92;;;16.00;99.90;;;;;;4977813;28;20404;-69
2023/05/09 02:25:53;;;;;;;57.85;29.88;;;16.20;99.90;;;;;;4994059;28;20045;-69
2023/05/09 02:28:21;;;;;;;58.92;30.23;;;15.80;99.90;;;;;;4993760;28;20125;-69
2023/05/09 02:30:49;;;;;;;67.43;33.53;;;16.20;99.90;;;;;;4977420;28;20042;-68
2023/05/09 02:33:15;;;;;;;51.80;28.63;;;16.00;99.90;;;;;;4993913;28;20042;-69
2023/05/09 02:35:44;;;;;;;54.13;28.13;;;16.00;99.90;;;;;;4993560;28;20084;-69
2023/05/09 02:38:11;;;;;;;59.92;30.35;;;16.80;99.90;;;;;;4993479;28;20500;-68
2023/05/09 02:40:37;;;;;;;55.25;29.05;;;15.90;99.90;;;;;;4993200;28;20047;-69
2023/05/09 02:43:03;;;;;;;64.68;32.08;;;16.40;99.90;;;;;;5009821;28;20157;-68
2023/05/09 02:45:29;;;;;;;60.28;29.85;;;16.80;99.90;;;;;;4993632;28;20073;-69
2023/05/09 02:47:54;;;;;;;62.47;31.30;;;15.90;99.90;;;;;;4993238;28;20124;-69
2023/05/09 02:50:20;;;;;;;58.60;31.00;;;16.00;99.90;;;;;;4992987;28;20407;-69
2023/05/09 02:52:46;;;;;;;61.33;31.42;;;16.10;99.90;;;;;;4993315;28;20758;-69
2023/05/09 02:55:11;;;;;;;61.53;30.27;;;16.10;99.90;;;;;;4993814;28;20046;-69
2023/05/09 02:57:37;;;;;;;58.40;29.58;;;16.10;99.90;;;;;;4994345;28;20040;-68
2023/05/09 03:00:07;;;;;;;62.05;31.85;;;16.10;99.90;;;;;;4976670;28;20101;-69
2023/05/09 03:02:33;;;;;;;57.58;30.48;;;15.90;99.90;;;;;;5009503;28;20042;-69
2023/05/09 03:04:58;;;;;;;56.00;28.60;;;16.10;99.90;;;;;;4976753;28;20045;-67
2023/05/09 03:07:24;;;;;;;55.85;29.63;;;16.20;99.90;;;;;;4993352;28;20042;-69
2023/05/09 03:09:50;;;;;;;56.35;30.40;;;15.90;99.90;;;;;;4992816;28;20074;-69
2023/05/09 03:12:15;;;;;;;67.97;33.20;;;16.20;99.90;;;;;;4992980;28;20419;-68
2023/05/09 03:14:41;;;;;;;60.78;29.90;;;16.00;99.90;;;;;;4992808;28;20046;-68
2023/05/09 03:17:06;;;;;;;66.13;32.28;;;15.90;99.90;;;;;;4992856;28;20042;-69
2023/05/09 03:19:32;;;;;;;62.70;32.67;;;15.90;99.90;;;;;;4992610;28;20401;-68
2023/05/09 03:21:58;;;;;;;60.80;30.17;;;16.00;99.90;;;;;;4992724;28;20070;-69
2023/05/09 03:24:27;;;;;;;67.97;33.42;;;16.30;99.90;;;;;;4992967;28;20038;-69
2023/05/09 03:26:52;;;;;;;59.85;32.95;;;16.00;99.90;;;;;;4992852;28;20125;-69
2023/05/09 03:29:18;;;;;;;70.82;33.95;;;16.10;99.90;;;;;;4992700;28;20097;-68
2023/05/09 03:31:44;;;;;;;65.45;32.97;;;15.80;99.90;;;;;;4992215;28;20061;-69
2023/05/09 03:34:13;;;;;;;68.55;35.53;;;16.00;99.90;;;;;;4992415;28;20038;-68
2023/05/09 03:36:41;;;;;;;67.38;34.38;;;15.80;99.90;;;;;;4992666;28;20415;-69
2023/05/09 03:39:07;;;;;;;62.53;32.22;;;16.80;99.90;;;;;;5008828;28;20149;-67
2023/05/09 03:41:34;;;;;;;62.65;32.65;;;16.50;99.90;;;;;;4992062;28;20049;-69
2023/05/09 03:44:00;;;;;;;59.95;33.05;;;15.80;99.90;;;;;;4992400;28;20049;-69
2023/05/09 03:46:26;;;;;;;69.75;34.33;;;16.00;99.90;;;;;;4992467;28;20034;-68
2023/05/09 03:48:52;;;;;;;64.07;35.60;;;16.20;99.90;;;;;;4992326;28;20096;-69
2023/05/09 03:51:17;;;;;;;65.32;33.38;;;15.70;99.90;;;;;;4992276;28;20046;-69
2023/05/09 03:53:46;;;;;;;65.47;32.38;;;16.10;99.90;;;;;;4992142;28;20034;-68
2023/05/09 03:56:12;;;;;;;65.25;32.08;;;16.00;99.90;;;;;;5008439;28;20052;-68
2023/05/09 03:58:37;;;;;;;68.03;34.53;;;16.00;99.90;;;;;;4975785;28;20042;-68
2023/05/09 04:01:03;;;;;;;71.72;35.75;;;15.90;99.90;;;;;;4991977;28;20448;-68
2023/05/09 04:03:29;;;;;;;63.13;34.05;;;15.70;99.90;;;;;;4991945;28;20038;-69
2023/05/09 04:05:54;;;;;;;67.80;34.65;;;15.90;99.90;;;;;;4992113;28;20039;-69
2023/05/09 04:08:20;;;;;;;80.15;37.38;;;16.00;99.90;;;;;;4991810;28;20073;-68
2023/05/09 04:10:48;;;;;;;62.88;32.70;;;15.70;99.90;;;;;;4991683;28;20177;-69
2023/05/09 04:13:13;;;;;;;70.28;35.83;;;15.90;99.90;;;;;;4991899;28;20053;-69
2023/05/09 04:15:39;;;;;;;65.80;32.42;;;15.80;99.90;;;;;;4991846;28;20035;-69
2023/05/09 04:18:05;;;;;;;70.28;33.70;;;16.00;99.90;;;;;;4991964;28;20053;-69
2023/05/09 04:20:30;;;;;;;64.05;33.00;;;16.00;99.90;;;;;;4991374;28;20512;-68
2023/05/09 04:22:57;;;;;;;64.93;34.72;;;16.00;99.90;;;;;;4992321;28;20038;-69
2023/05/09 04:25:23;;;;;;;66.47;33.35;;;16.20;99.90;;;;;;4991812;28;20061;-69
2023/05/09 04:27:49;;;;;;;60.10;33.03;;;16.20;99.90;;;;;;4991654;28;20034;-69
2023/05/09 04:30:15;;;;;;;64.13;32.88;;;16.10;99.90;;;;;;4991453;28;20133;-69
2023/05/09 04:32:44;;;;;;;68.65;35.05;;;16.20;99.90;;;;;;4991864;28;20045;-69
2023/05/09 04:35:10;;;;;;;71.03;35.25;;;16.20;99.90;;;;;;4991567;28;20404;-69
2023/05/09 04:37:36;;;;;;;65.72;32.83;;;15.90;99.90;;;;;;5008868;28;20133;-68
2023/05/09 04:40:03;;;;;;;72.53;35.35;;;16.30;99.90;;;;;;4992038;28;20129;-69
2023/05/09 04:42:28;;;;;;;78.60;37.45;;;16.20;99.90;;;;;;4973032;28;20470;-68
2023/05/09 04:44:54;;;;;;;75.13;34.58;;;16.10;99.90;;;;;;4971705;28;20085;-68
2023/05/09 04:47:20;;;;;;;63.10;33.25;;;16.10;99.90;;;;;;4955800;28;20077;-69
2023/05/09 04:49:45;;;;;;;66.43;34.20;;;16.90;99.90;;;;;;4971630;28;20409;-68
2023/05/09 04:52:11;;;;;;;81.22;36.95;;;16.30;99.90;;;;;;4955511;28;20054;-68
2023/05/09 04:54:36;;;;;;;70.38;32.67;;;16.60;99.90;;;;;;4971943;28;20050;-68
2023/05/09 04:57:03;;;;;;;63.10;33.17;;;15.70;99.90;;;;;;4955679;28;20531;-69
2023/05/09 04:59:29;;;;;;;68.32;33.42;;;16.30;99.90;;;;;;4971632;28;20038;-69
2023/05/09 05:01:54;;;;;;;71.78;34.55;;;17.00;99.90;;;;;;4955617;28;20106;-69
2023/05/09 05:04:20;;;;;;;62.10;32.67;;;16.40;99.90;;;;;;4972921;28;20546;-68
2023/05/09 05:06:46;;;;;;;92.15;39.72;;;16.00;99.90;;;;;;4971491;28;20066;-69
2023/05/09 05:09:12;;;;;;;71.57;35.75;;;15.80;99.90;;;;;;4971547;28;20504;-69
2023/05/09 05:11:38;;;;;;;70.07;35.13;;;15.80;99.90;;;;;;4972593;28;20448;-68
2023/05/09 05:14:03;;;;;;;79.53;38.20;;;16.10;99.90;;;;;;4971609;28;20118;-69
2023/05/09 05:16:29;;;;;;;72.80;36.45;;;15.70;99.90;;;;;;4971422;28;20085;-68
2023/05/09 05:18:55;;;;;;;80.80;37.65;;;15.80;99.90;;;;;;4974801;28;20045;-69
2023/05/09 05:21:20;;;;;;;72.57;35.45;;;16.40;99.90;;;;;;4977723;28;20093;-69
2023/05/09 05:23:46;;;;;;;65.65;33.88;;;16.30;99.90;;;;;;4977924;28;20471;-69
2023/05/09 05:26:11;;;;;;;72.38;35.67;;;16.50;99.90;;;;;;4977790;28;20042;-68
2023/05/09 05:28:37;;;;;;;77.35;38.08;;;16.40;99.90;;;;;;4977712;28;20571;-69
2023/05/09 05:31:03;;;;;;;67.50;34.95;;;16.20;99.90;;;;;;4977398;28;20134;-68
2023/05/09 05:33:28;;;;;;;72.00;36.03;;;16.40;99.90;;;;;;4977845;28;20413;-69
2023/05/09 05:35:54;;;;;;;73.63;37.47;;;16.40;99.90;;;;;;4977781;28;20122;-68
2023/05/09 05:38:19;;;;;;;73.25;36.30;;;16.30;99.90;;;;;;4978342;28;20035;-69
2023/05/09 05:40:45;;;;;;;69.53;35.58;;;16.40;99.90;;;;;;4977728;28;20049;-69
2023/05/09 05:43:10;;;;;;;77.18;36.88;;;16.50;99.90;;;;;;4979095;28;20390;-69
2023/05/09 05:45:36;;;;;;;77.45;36.53;;;16.30;99.90;;;;;;4963126;28;20496;-69
2023/05/09 05:48:02;;;;;;;75.32;38.83;;;16.50;99.90;;;;;;4977877;28;20082;-68
2023/05/09 05:50:27;;;;;;;79.03;35.97;;;16.40;99.90;;;;;;4977783;28;20100;-69
2023/05/09 05:52:53;;;;;;;65.57;33.75;;;16.50;99.90;;;;;;4978983;28;20673;-69
2023/05/09 05:55:19;;;;;;;77.38;37.25;;;16.50;99.90;;;;;;4977832;28;20038;-69
2023/05/09 05:57:46;;;;;;;67.80;35.35;;;16.70;99.90;;;;;;4977634;28;20049;-69
2023/05/09 06:00:13;;;;;;;72.03;35.47;;;16.90;99.90;;;;;;4977157;28;20591;-68
2023/05/09 06:02:43;;;;;;;74.38;38.13;;;16.70;99.90;;;;;;4984533;28;20089;-69
2023/05/09 06:05:09;;;;;;;71.15;37.30;;;17.30;99.90;;;;;;5013266;28;20070;-68
2023/05/09 06:07:35;;;;;;;70.45;36.90;;;16.60;99.90;;;;;;4996821;28;20092;-68
2023/05/09 06:10:01;;;;;;;82.75;39.92;;;16.60;99.90;;;;;;4996310;28;20133;-67
2023/05/09 06:12:26;;;;;;;65.90;34.30;;;16.80;99.90;;;;;;4973035;28;20054;-69
2023/05/09 06:14:52;;;;;;;74.68;38.42;;;17.00;99.90;;;;;;4976071;28;20043;-68
2023/05/09 06:17:18;;;;;;;78.15;38.13;;;16.90;99.90;;;;;;4975143;28;20046;-68
2023/05/09 06:19:43;;;;;;;79.28;40.72;;;17.00;99.90;;;;;;4977026;28;20054;-68
2023/05/09 06:22:10;;;;;;;81.90;41.05;;;16.90;99.90;;;;;;4981845;28;20412;-69
2023/05/09 06:24:35;;;;;;;68.63;36.05;;;16.80;99.90;;;;;;4988709;28;20507;-68
2023/05/09 06:27:01;;;;;;;85.63;41.42;;;16.70;99.90;;;;;;4993164;28;20045;-69
2023/05/09 06:29:29;;;;;;;76.47;38.72;;;17.00;99.90;;;;;;4978592;28;20047;-69
2023/05/09 06:31:55;;;;;;;81.55;40.85;;;17.00;99.90;;;;;;4969615;28;20507;-69
2023/05/09 06:34:20;;;;;;;78.47;39.25;;;17.70;99.90;;;;;;4958715;28;20042;-69
2023/05/09 06:36:46;;;;;;;81.50;40.33;;;17.00;99.90;;;;;;4980349;28;20039;-68
2023/05/09 06:39:11;;;;;;;76.90;38.80;;;17.70;99.90;;;;;;4979683;28;20424;-69
2023/05/09 06:41:37;;;;;;;84.32;42.72;;;17.40;99.90;;;;;;4977038;28;20420;-69
2023/05/09 06:44:03;;;;;;;90.07;41.60;;;16.80;99.90;;;;;;4970359;28;20412;-68
2023/05/09 06:46:28;;;;;;;76.80;39.45;;;17.10;99.90;;;;;;4973694;28;20049;-69
2023/05/09 06:48:54;;;;;;;85.22;41.72;;;17.10;99.90;;;;;;4965030;28;20137;-68
2023/05/09 06:51:19;;;;;;;91.85;45.53;;;17.30;99.90;;;;;;4981013;28;20038;-69
2023/05/09 06:53:45;;;;;;;86.15;44.03;;;17.30;99.90;;;;;;4978676;28;20043;-69
2023/05/09 06:56:11;;;;;;;84.78;43.20;;;17.40;99.90;;;;;;4978265;28;20035;-69
2023/05/09 06:58:36;;;;;;;86.25;42.58;;;17.10;99.90;;;;;;4981539;28;20034;-68
2023/05/09 07:01:03;;;;;;;92.53;46.63;;;17.20;99.90;;;;;;4959276;28;20043;-68
2023/05/09 07:03:29;;;;;;;82.07;43.17;;;17.20;99.90;;;;;;4974789;28;20204;-68
2023/05/09 07:05:57;;;;;;;86.38;43.80;;;17.40;99.90;;;;;;4969931;28;20568;-69
2023/05/09 07:08:23;;;;;;;95.57;48.17;;;17.20;99.90;;;;;;4982099;28;20042;-69
2023/05/09 07:10:49;;;;;;;85.25;42.05;;;17.50;99.90;;;;;;4976998;28;20061;-69
2023/05/09 07:13:14;;;;;;;82.75;43.17;;;17.30;99.90;;;;;;4989057;28;20038;-69
2023/05/09 07:15:40;;;;;;;87.82;44.15;;;17.70;99.90;;;;;;4985670;28;20047;-68
2023/05/09 07:18:06;;;;;;;93.03;46.10;;;18.00;99.90;;;;;;4977659;28;20030;-68
2023/05/09 07:20:31;;;;;;;88.50;44.53;;;17.80;99.90;;;;;;4972080;28;20046;-69
2023/05/09 07:22:57;;;;;;;91.85;46.05;;;17.60;99.90;;;;;;4974279;28;20090;-68
2023/05/09 07:25:23;;;;;;;83.90;42.65;;;17.70;99.90;;;;;;4982737;28;20038;-69
2023/05/09 07:27:48;;;;;;;81.95;44.70;;;17.70;99.90;;;;;;4975593;28;20049;-69
2023/05/09 07:30:14;;;;;;;88.03;44.25;;;17.70;99.90;;;;;;4979516;28;20400;-68
2023/05/09 07:32:40;;;;;;;81.93;44.10;;;17.40;99.90;;;;;;4985510;28;20047;-68
2023/05/09 07:35:05;;;;;;;77.38;42.22;;;17.50;99.90;;;;;;4974480;28;20046;-68
2023/05/09 07:37:31;;;;;;;83.72;42.75;;;17.60;99.90;;;;;;4968934;28;20651;-69
2023/05/09 07:39:57;;;;;;;81.60;42.35;;;17.70;99.90;;;;;;4975171;28;20712;-68
2023/05/09 07:42:22;;;;;;;91.63;45.63;;;17.50;99.90;;;;;;4979745;28;20042;-68
2023/05/09 07:44:48;;;;;;;70.82;39.78;;;18.00;99.90;;;;;;4963258;28;20034;-68
2023/05/09 07:47:14;;;;;;;89.53;43.75;;;17.40;99.90;;;;;;4982229;28;20154;-69
2023/05/09 07:49:42;;;;;;;85.03;43.42;;;17.50;99.90;;;;;;4974409;28;20049;-67
2023/05/09 07:52:07;;;;;;;78.20;42.17;;;17.80;99.90;;;;;;4967573;28;20072;-69
2023/05/09 07:54:33;;;;;;;91.35;45.42;;;17.30;99.90;;;;;;4982102;28;20603;-68
2023/05/09 07:56:58;;;;;;;79.75;43.67;;;17.50;99.90;;;;;;4975790;28;20046;-68
2023/05/09 07:59:24;;;;;;;86.22;45.40;;;17.70;99.90;;;;;;4977120;28;20456;-68
2023/05/09 08:01:50;;;;;;;76.35;40.85;;;17.40;99.90;;;;;;4978966;28;20034;-69
2023/05/09 08:04:15;;;;;;;80.68;41.63;;;17.50;99.90;;;;;;4982106;28;20127;-69
2023/05/09 08:06:41;;;;;;;77.28;40.28;;;17.50;99.90;;;;;;4974781;28;20061;-69
2023/05/09 08:09:06;;;;;;;78.93;41.03;;;17.60;99.90;;;;;;4989038;28;20089;-69
2023/05/09 08:11:33;;;;;;;76.07;42.25;;;17.90;99.90;;;;;;4991721;28;20034;-68
2023/05/09 08:13:59;;;;;;;81.55;39.28;;;16.60;99.90;;;;;;4990957;28;20056;-69
2023/05/09 08:16:24;;;;;;;71.25;38.05;;;17.80;99.90;;;;;;4991223;28;20124;-68
2023/05/09 08:18:50;;;;;;;69.57;38.47;;;17.70;99.90;;;;;;4991156;28;20415;-69
2023/05/09 08:21:15;;;;;;;66.60;35.88;;;17.70;99.90;;;;;;4990972;28;20034;-69
2023/05/09 08:23:41;;;;;;;68.97;37.25;;;17.40;99.90;;;;;;4987080;28;20034;-69
2023/05/09 08:26:07;;;;;;;63.15;36.35;;;18.10;99.90;;;;;;4991265;28;20038;-69
2023/05/09 08:28:32;;;;;;;62.28;33.80;;;18.00;99.90;;;;;;4990488;28;20480;-69
2023/05/09 08:30:58;;;;;;;58.38;32.65;;;18.50;99.90;;;;;;4991742;28;20078;-68
2023/05/09 08:33:23;;;;;;;51.75;29.45;;;17.90;99.90;;;;;;4990605;28;20080;-67
2023/05/09 08:35:50;;;;;;;48.15;26.52;;;16.60;99.90;;;;;;4990835;28;20042;-68
2023/05/09 08:38:16;;;;;;;43.35;26.23;;;18.10;99.90;;;;;;4988996;28;20523;-68
2023/05/09 08:40:41;;;;;;;41.15;24.00;;;18.20;99.90;;;;;;4988642;28;20102;-69
2023/05/09 08:43:08;;;;;;;43.47;24.63;;;18.20;99.90;;;;;;4972899;28;20116;-68
2023/05/09 08:45:37;;;;;;;37.88;22.73;;;18.10;99.90;;;;;;4972576;28;20042;-68
2023/05/09 08:48:03;;;;;;;37.17;21.45;;;18.10;99.90;;;;;;5005406;28;20579;-69
2023/05/09 08:50:28;;;;;;;42.33;23.45;;;18.10;99.90;;;;;;4989335;28;20125;-69
2023/05/09 08:52:54;;;;;;;38.60;21.48;;;18.10;99.90;;;;;;4990218;28;20045;-68
2023/05/09 08:55:20;;;;;;;37.50;20.65;;;18.50;99.90;;;;;;5002284;28;20117;-68
2023/05/09 08:57:47;;;;;;;40.22;20.55;;;18.50;99.90;;;;;;4986392;28;20084;-68
2023/05/09 09:00:14;;;;;;;31.38;19.02;;;18.60;99.90;;;;;;4987566;28;20074;-68
2023/05/09 09:02:41;;;;;;;31.73;19.30;;;18.60;99.90;;;;;;4971951;28;20448;-69
2023/05/09 09:05:06;;;;;;;30.95;20.48;;;18.60;99.90;;;;;;4971554;28;20050;-69
2023/05/09 09:07:37;;;;;;;32.78;19.33;;;18.60;99.90;;;;;;4975738;28;20064;-69
2023/05/09 09:10:04;;;;;;;35.90;18.58;;;18.90;99.90;;;;;;4990600;28;20042;-69
2023/05/09 09:12:31;;;;;;;33.92;18.42;;;18.80;99.90;;;;;;4986759;28;20038;-69
2023/05/09 09:15:02;;;;;;;28.83;17.20;;;19.00;99.90;;;;;;4971409;28;20043;-69
2023/05/09 09:17:29;;;;;;;31.55;17.73;;;19.30;99.90;;;;;;4971459;28;20038;-68
2023/05/09 09:19:59;;;;;;;60.10;21.08;;;19.10;99.90;;;;;;4971146;28;20089;-68
2023/05/09 09:22:32;;;;;;;36.63;19.50;;;19.10;99.90;;;;;;4955193;28;20077;-68
2023/05/09 09:25:01;;;;;;;;;;;19.20;99.90;;;;;;4971821;28;20054;-68
2023/05/09 09:27:27;;;;;;;23.92;16.45;;;19.20;99.90;;;;;;4988747;28;20303;-70
2023/05/09 09:29:52;;;;;;;28.90;17.15;;;19.60;99.90;;;;;;4990339;28;20030;-68
2023/05/09 09:32:18;;;;;;;25.10;16.30;;;19.50;99.90;;;;;;4990598;28;20050;-69
2023/05/09 09:34:48;;;;;;;30.60;16.40;;;19.20;99.90;;;;;;4990894;28;20038;-68
2023/05/09 09:37:23;;;;;;;29.55;16.60;;;19.20;99.90;;;;;;4990317;28;20389;-69
2023/05/09 09:39:55;;;;;;;30.05;16.90;;;19.30;99.90;;;;;;4987813;28;20420;-67
2023/05/09 09:42:22;;;;;;;27.27;17.35;;;19.40;99.90;;;;;;4974275;28;20038;-69
2023/05/09 09:45:08;;;;;;;57.72;21.83;;;19.30;99.90;;;;;;4990552;28;20105;-68
2023/05/09 09:47:33;;;;;;;27.75;18.63;;;19.40;99.90;;;;;;4990421;28;20504;-69
2023/05/09 09:50:10;;;;;;;29.30;18.40;;;19.40;99.90;;;;;;4978743;28;20042;-68
2023/05/09 09:52:40;;;;;;;30.23;18.10;;;19.60;99.90;;;;;;4971151;28;20125;-69
2023/05/09 09:55:06;;;;;;;32.10;18.52;;;19.90;99.90;;;;;;4971251;28;20042;-68
2023/05/09 09:57:37;;;;;;;27.80;18.15;;;19.50;99.90;;;;;;4972352;28;20054;-68
2023/05/09 10:00:06;;;;;;;30.80;18.38;;;19.60;99.90;;;;;;4970789;28;20050;-68
2023/05/09 10:02:32;;;;;;;30.08;18.48;;;19.30;99.90;;;;;;4971302;28;20073;-69
2023/05/09 10:05:07;;;;;;;28.33;18.73;;;19.40;99.90;;;;;;4972879;28;20449;-69
2023/05/09 10:07:37;;;;;;;29.95;18.25;;;19.50;99.90;;;;;;4975437;28;20175;-69
2023/05/09 10:10:04;;;;;;;29.45;18.45;;;19.30;99.90;;;;;;4975447;28;20043;-68
2023/05/09 10:12:36;;;;;;;26.83;17.05;;;19.30;99.90;;;;;;4976317;28;20054;-69
2023/05/09 10:15:05;;;;;;;27.95;17.90;;;19.50;99.90;;;;;;4977089;28;20041;-68
2023/05/09 10:17:31;;;;;;;27.15;16.90;;;19.20;99.90;;;;;;4975394;28;20047;-69
2023/05/09 10:20:03;;;;;;;23.42;15.18;;;19.30;99.90;;;;;;4958457;28;20043;-69
2023/05/09 10:22:30;;;;;;;27.98;16.83;;;19.60;99.90;;;;;;4958709;28;20046;-69
2023/05/09 10:25:05;;;;;;;25.75;16.67;;;19.50;99.90;;;;;;4958158;28;20046;-68
2023/05/09 10:27:35;;;;;;;30.10;18.02;;;19.30;99.90;;;;;;4974330;28;20043;-69
2023/05/09 10:30:11;;;;;;;26.83;18.27;;;19.40;99.90;;;;;;4974183;28;20042;-69
2023/05/09 10:32:58;;;;;;;28.85;18.17;;;19.50;99.90;;;;;;4975569;28;20504;-69
2023/05/09 10:35:38;;;;;;;28.38;17.75;;;19.30;99.90;;;;;;4974200;28;20042;-69
2023/05/09 10:38:04;;;;;;;30.05;17.60;;;19.60;99.90;;;;;;4983045;28;20038;-69
2023/05/09 10:40:31;;;;;;;27.05;18.10;;;19.60;99.90;;;;;;4994008;28;20416;-69
2023/05/09 10:42:57;;;;;;;27.50;17.38;;;19.80;99.90;;;;;;4993208;28;20050;-69
2023/05/09 10:45:23;;;;;;;28.40;17.73;;;19.50;99.90;;;;;;4993374;28;20539;-69
2023/05/09 10:47:51;;;;;;;24.77;17.30;;;19.60;99.90;;;;;;4984586;28;20049;-68
2023/05/09 10:50:18;;;;;;;29.80;18.27;;;19.50;99.90;;;;;;4979839;28;20505;-67
2023/05/09 10:53:02;;;;;;;28.50;19.05;;;19.50;99.90;;;;;;4977624;28;20186;-68
2023/05/09 10:55:48;;;;;;;27.23;18.77;;;19.20;99.90;;;;;;4979356;28;20046;-68
2023/05/09 10:58:35;;;;;;;28.67;19.02;;;19.10;99.90;;;;;;4957606;28;20042;-66
2023/05/09 11:01:02;;;;;;;29.13;17.05;;;19.40;99.90;;;;;;4975885;28;20035;-68
2023/05/09 11:03:48;;;;;;;25.88;17.13;;;19.50;99.90;;;;;;4956582;28;20087;-68
2023/05/09 11:06:38;;;;;;;28.08;17.27;;;19.30;99.90;;;;;;4997884;28;20052;-68
2023/05/09 11:09:24;;;;;;;25.42;16.25;;;19.10;99.90;;;;;;4979255;28;20038;-68
2023/05/09 11:11:52;;;;;;;23.70;15.63;;;18.90;99.90;;;;;;4985122;28;20263;-68
2023/05/09 11:14:43;;;;;;;24.02;17.17;;;18.90;99.90;;;;;;4974864;28;20068;-68
2023/05/09 11:17:21;;;;;;;23.73;15.98;;;18.80;99.90;;;;;;4983528;28;20418;-69
2023/05/09 11:19:46;;;;;;;23.95;16.27;;;18.80;99.90;;;;;;4994416;28;20043;-69
2023/05/09 11:22:19;;;;;;;25.48;17.27;;;18.80;99.90;;;;;;4974340;28;20075;-68
2023/05/09 11:24:49;;;;;;;25.27;16.67;;;18.90;99.90;;;;;;4979602;28;20783;-69
2023/05/09 11:27:19;;;;;;;24.50;17.05;;;19.00;99.90;;;;;;4977484;28;20081;-68
2023/05/09 11:29:50;;;;;;;24.55;16.65;;;18.90;99.90;;;;;;4959105;28;20408;-67
2023/05/09 11:32:17;;;;;;;23.40;16.08;;;19.10;99.90;;;;;;4980851;28;20039;-68
2023/05/09 11:34:44;;;;;;;24.35;16.10;;;19.40;99.90;;;;;;4985619;28;20072;-69
2023/05/09 11:37:11;;;;;;;22.98;16.30;;;19.20;99.90;;;;;;4988263;28;20141;-68
2023/05/09 11:39:59;;;;;;;25.23;16.67;;;19.50;99.90;;;;;;4991828;28;20042;-68
2023/05/09 11:42:27;;;;;;;24.77;16.08;;;19.50;99.90;;;;;;4992270;28;20038;-69
2023/05/09 11:44:52;;;;;;;24.08;17.02;;;20.00;99.90;;;;;;5008404;28;20507;-68
2023/05/09 11:47:19;;;;;;;27.55;17.35;;;19.50;99.90;;;;;;4992288;28;20042;-69
2023/05/09 11:49:46;;;;;;;27.70;18.60;;;19.20;99.90;;;;;;4998466;28;20042;-67
2023/05/09 11:52:12;;;;;;;29.27;19.08;;;19.90;99.90;;;;;;4973970;28;20042;-69
2023/05/09 11:54:38;;;;;;;31.70;20.05;;;19.00;99.90;;;;;;4972767;28;20126;-67
2023/05/09 11:57:04;;;;;;;30.25;19.75;;;19.00;99.90;;;;;;4973971;28;20510;-68
2023/05/09 11:59:30;;;;;;;32.97;20.25;;;19.20;99.90;;;;;;4972630;28;20110;-67
2023/05/09 12:02:00;;;;;;;29.55;19.60;;;18.80;99.90;;;;;;4972365;28;20052;-69
2023/05/09 12:04:29;;;;;;;31.42;21.05;;;19.20;99.90;;;;;;4972819;28;20035;-69
2023/05/09 12:06:58;;;;;;;34.30;22.20;;;19.20;99.90;;;;;;4973662;28;20082;-69
2023/05/09 12:09:33;;;;;;;28.52;19.55;;;19.10;99.90;;;;;;4972315;28;20097;-69
2023/05/09 12:12:00;;;;;;;27.98;19.27;;;18.80;99.90;;;;;;4972171;28;20035;-68
2023/05/09 12:14:30;;;;;;;27.83;20.02;;;19.10;99.90;;;;;;4972004;28;20054;-68
2023/05/09 12:16:56;;;;;;;27.33;19.92;;;19.20;99.90;;;;;;4956389;28;20409;-69
2023/05/09 12:19:24;;;;;;;31.60;21.15;;;19.00;99.90;;;;;;4972178;28;20042;-68
2023/05/09 12:21:55;;;;;;;30.75;22.45;;;18.80;99.90;;;;;;4971803;28;20098;-68
2023/05/09 12:24:20;;;;;;;30.33;20.13;;;18.90;99.90;;;;;;4972245;28;20046;-69
2023/05/09 12:26:47;;;;;;;33.00;22.48;;;18.90;99.90;;;;;;4956264;28;20034;-69
2023/05/09 12:29:13;;;;;;;33.35;23.20;;;18.80;99.90;;;;;;4971070;28;20423;-68
2023/05/09 12:31:40;;;;;;;30.13;22.15;;;18.70;99.90;;;;;;4972217;28;20125;-68